createdAt,value
2023-02-16T00:00:22.602Z,99.41
2023-02-16T00:01:45.533Z,99.34
2023-02-16T00:02:49.395Z,99.33
2023-02-16T00:03:54.170Z,99.40
2023-02-16T00:04:57.044Z,99.36
2023-02-16T00:05:59.997Z,99.28
2023-02-16T00:07:02.842Z,99.35
2023-02-16T00:08:05.656Z,99.26
2023-02-16T00:09:08.486Z,99.30
2023-02-16T00:10:13.215Z,99.24
2023-02-16T00:11:42.990Z,99.22
2023-02-16T00:13:05.164Z,99.22
2023-02-16T00:14:10.798Z,99.25
2023-02-16T00:15:20.749Z,99.22
2023-02-16T00:16:25.201Z,99.24
2023-02-16T00:17:28.093Z,99.26
2023-02-16T00:18:30.989Z,99.33
2023-02-16T00:19:41.420Z,99.33
2023-02-16T00:20:44.451Z,99.39
2023-02-16T00:21:49.334Z,99.43
2023-02-16T00:22:52.639Z,99.45
2023-02-16T00:23:55.589Z,99.44
2023-02-16T00:24:58.494Z,99.53
2023-02-16T00:26:01.503Z,99.51
2023-02-16T00:27:14.213Z,99.45
2023-02-16T00:28:20.771Z,99.41
2023-02-16T00:29:33.628Z,99.31
2023-02-16T00:30:36.659Z,99.30
2023-02-16T00:31:39.690Z,99.21
2023-02-16T00:32:42.984Z,99.23
2023-02-16T00:33:47.210Z,99.14
2023-02-16T00:34:50.089Z,99.26
2023-02-16T00:35:53.010Z,99.30
2023-02-16T00:36:56.871Z,99.26
2023-02-16T00:37:59.735Z,99.20
2023-02-16T00:39:02.600Z,99.24
2023-02-16T00:40:08.046Z,99.23
2023-02-16T00:41:38.717Z,99.31
2023-02-16T00:42:43.533Z,99.35
2023-02-16T00:43:46.395Z,99.22
2023-02-16T00:44:55.017Z,99.21
2023-02-16T00:45:57.998Z,99.15
2023-02-16T00:47:04.386Z,99.13
2023-02-16T00:48:09.249Z,99.12
2023-02-16T00:49:15.005Z,99.09
2023-02-16T00:50:25.219Z,99.13
2023-02-16T00:51:28.491Z,99.02
2023-02-16T00:52:37.086Z,98.98
2023-02-16T00:53:39.969Z,98.99
2023-02-16T00:54:42.889Z,98.94
2023-02-16T00:55:45.924Z,98.89
2023-02-16T00:56:48.914Z,98.99
2023-02-16T00:58:11.686Z,98.94
2023-02-16T00:59:18.566Z,98.88
2023-02-16T01:00:26.798Z,98.87
2023-02-16T01:01:32.265Z,98.90
2023-02-16T01:02:35.481Z,98.87
2023-02-16T01:03:38.642Z,98.83
2023-02-16T01:04:41.902Z,98.81
2023-02-16T01:05:44.876Z,98.95
2023-02-16T01:07:07.375Z,98.87
2023-02-16T01:08:35.089Z,98.93
2023-02-16T01:09:58.790Z,99.02
2023-02-16T01:11:07.608Z,98.85
2023-02-16T01:12:15.418Z,98.94
2023-02-16T01:13:18.770Z,98.87
2023-02-16T01:14:21.667Z,98.91
2023-02-16T01:15:26.212Z,98.78
2023-02-16T01:16:38.507Z,98.82
2023-02-16T01:17:41.877Z,98.71
2023-02-16T01:18:45.596Z,98.71
2023-02-16T01:19:48.878Z,98.76
2023-02-16T01:20:52.666Z,98.77
2023-02-16T01:21:55.542Z,98.83
2023-02-16T01:22:58.411Z,98.79
2023-02-16T01:24:01.305Z,98.84
2023-02-16T01:25:04.556Z,98.98
2023-02-16T01:26:14.432Z,99.03
2023-02-16T01:27:17.445Z,98.97
2023-02-16T01:28:24.013Z,99.05
2023-02-16T01:29:26.928Z,99.09
2023-02-16T01:30:30.206Z,99.01
2023-02-16T01:31:33.379Z,99.04
2023-02-16T01:32:38.540Z,99.05
2023-02-16T01:33:43.765Z,98.97
2023-02-16T01:34:46.592Z,98.98
2023-02-16T01:35:50.952Z,98.93
2023-02-16T01:36:53.909Z,98.94
2023-02-16T01:37:56.970Z,99.01
2023-02-16T01:39:00.978Z,99.00
2023-02-16T01:40:04.344Z,99.05
2023-02-16T01:41:22.722Z,99.24
2023-02-16T01:42:49.257Z,99.25
2023-02-16T01:44:02.711Z,99.13
2023-02-16T01:45:17.764Z,99.11
2023-02-16T01:46:44.388Z,99.16
2023-02-16T01:47:55.227Z,99.03
2023-02-16T01:48:58.220Z,99.13
2023-02-16T01:50:14.530Z,99.05
2023-02-16T01:51:55.591Z,99.21
2023-02-16T01:53:19.023Z,99.24
2023-02-16T01:54:47.709Z,99.19
2023-02-16T01:55:58.395Z,99.15
2023-02-16T01:57:11.158Z,99.22
2023-02-16T01:58:22.868Z,99.29
2023-02-16T01:59:37.488Z,99.36
2023-02-16T02:00:49.750Z,99.44
2023-02-16T02:01:57.488Z,99.48
2023-02-16T02:03:29.944Z,99.45
2023-02-16T02:05:01.358Z,99.44
2023-02-16T02:06:05.776Z,99.54
2023-02-16T02:07:20.087Z,99.51
2023-02-16T02:08:38.773Z,99.60
2023-02-16T02:09:52.099Z,99.54
2023-02-16T02:11:00.675Z,99.49
2023-02-16T02:12:14.749Z,99.54
2023-02-16T02:13:44.542Z,99.42
2023-02-16T02:14:49.123Z,99.47
2023-02-16T02:15:52.834Z,99.47
2023-02-16T02:16:58.496Z,99.44
2023-02-16T02:18:02.655Z,99.39
2023-02-16T02:19:06.438Z,99.38
2023-02-16T02:21:11.249Z,99.32
2023-02-16T02:23:07.961Z,99.32
2023-02-16T02:24:30.040Z,99.23
2023-02-16T02:25:54.510Z,99.05
2023-02-16T02:27:04.055Z,99.00
2023-02-16T02:28:19.267Z,99.02
2023-02-16T02:29:40.846Z,98.96
2023-02-16T02:30:53.722Z,99.01
2023-02-16T02:32:17.096Z,98.90
2023-02-16T02:33:39.303Z,99.10
2023-02-16T02:34:42.144Z,98.97
2023-02-16T02:35:56.695Z,99.03
2023-02-16T02:37:10.213Z,98.99
2023-02-16T02:38:35.995Z,99.07
2023-02-16T02:39:42.304Z,99.08
2023-02-16T02:41:23.820Z,99.04
2023-02-16T02:42:37.938Z,98.92
2023-02-16T02:43:46.396Z,99.06
2023-02-16T02:44:53.599Z,98.97
2023-02-16T02:46:03.926Z,99.03
2023-02-16T02:47:07.336Z,99.09
2023-02-16T02:48:10.439Z,99.09
2023-02-16T02:49:13.325Z,99.07
2023-02-16T02:50:40.791Z,99.09
2023-02-16T02:51:44.348Z,99.08
2023-02-16T02:52:47.693Z,98.91
2023-02-16T02:54:14.894Z,98.95
2023-02-16T02:55:38.095Z,98.93
2023-02-16T02:57:10.299Z,98.85
2023-02-16T02:58:33.103Z,98.88
2023-02-16T02:59:59.156Z,98.90
2023-02-16T03:01:04.174Z,98.82
2023-02-16T03:02:08.488Z,98.76
2023-02-16T03:03:15.572Z,98.84
2023-02-16T03:04:21.957Z,98.93
2023-02-16T03:05:29.725Z,98.99
2023-02-16T03:06:37.994Z,98.88
2023-02-16T03:07:47.738Z,99.08
2023-02-16T03:08:58.229Z,98.89
2023-02-16T03:10:21.046Z,98.90
2023-02-16T03:11:47.972Z,98.93
2023-02-16T03:12:51.596Z,98.90
2023-02-16T03:13:59.185Z,98.83
2023-02-16T03:15:02.808Z,98.69
2023-02-16T03:16:12.498Z,98.67
2023-02-16T03:17:39.097Z,98.65
2023-02-16T03:19:04.422Z,98.65
2023-02-16T03:20:30.999Z,98.73
2023-02-16T03:21:54.152Z,98.82
2023-02-16T03:23:17.244Z,98.74
2023-02-16T03:24:50.258Z,98.65
2023-02-16T03:26:11.825Z,98.88
2023-02-16T03:27:38.521Z,98.98
2023-02-16T03:29:03.344Z,99.05
2023-02-16T03:30:08.740Z,99.07
2023-02-16T03:31:17.567Z,99.07
2023-02-16T03:32:20.953Z,99.02
2023-02-16T03:33:25.616Z,99.00
2023-02-16T03:34:30.245Z,98.90
2023-02-16T03:35:33.219Z,98.96
2023-02-16T03:36:43.583Z,98.93
2023-02-16T03:37:46.984Z,98.93
2023-02-16T03:38:51.045Z,98.91
2023-02-16T03:40:12.973Z,98.99
2023-02-16T03:41:15.825Z,98.91
2023-02-16T03:42:21.268Z,98.89
2023-02-16T03:43:28.906Z,98.85
2023-02-16T03:44:31.758Z,98.78
2023-02-16T03:45:37.554Z,98.73
2023-02-16T03:46:40.881Z,98.69
2023-02-16T03:47:43.724Z,98.70
2023-02-16T03:48:46.622Z,98.69
2023-02-16T03:49:49.646Z,98.65
2023-02-16T03:50:52.524Z,98.78
2023-02-16T03:51:55.363Z,98.67
2023-02-16T03:53:07.160Z,98.79
2023-02-16T03:54:10.538Z,98.75
2023-02-16T03:55:13.890Z,98.70
2023-02-16T03:56:17.416Z,98.74
2023-02-16T03:57:20.413Z,98.78
2023-02-16T03:58:24.499Z,98.93
2023-02-16T03:59:27.510Z,99.11
2023-02-16T04:00:31.598Z,99.34
2023-02-16T04:01:34.544Z,99.28
2023-02-16T04:02:37.447Z,99.22
2023-02-16T04:03:40.403Z,99.16
2023-02-16T04:04:43.295Z,99.12
2023-02-16T04:05:46.433Z,99.10
2023-02-16T04:06:49.306Z,99.08
2023-02-16T04:07:52.544Z,99.02
2023-02-16T04:08:55.432Z,98.97
2023-02-16T04:09:58.662Z,98.91
2023-02-16T04:11:21.480Z,98.95
2023-02-16T04:12:36.283Z,98.96
2023-02-16T04:13:39.189Z,98.90
2023-02-16T04:14:43.682Z,98.91
2023-02-16T04:15:46.799Z,98.79
2023-02-16T04:16:49.742Z,98.77
2023-02-16T04:17:54.176Z,98.86
2023-02-16T04:18:57.068Z,98.78
2023-02-16T04:19:59.975Z,98.83
2023-02-16T04:21:03.063Z,98.79
2023-02-16T04:22:06.013Z,98.72
2023-02-16T04:23:09.087Z,98.63
2023-02-16T04:24:11.958Z,98.70
2023-02-16T04:25:16.037Z,98.68
2023-02-16T04:26:18.991Z,98.69
2023-02-16T04:27:22.269Z,98.63
2023-02-16T04:28:25.098Z,98.61
2023-02-16T04:29:29.379Z,98.68
2023-02-16T04:30:32.422Z,98.70
2023-02-16T04:31:35.598Z,98.66
2023-02-16T04:32:39.653Z,98.65
2023-02-16T04:33:42.518Z,98.61
2023-02-16T04:34:45.386Z,98.58
2023-02-16T04:35:48.265Z,98.68
2023-02-16T04:36:51.353Z,98.68
2023-02-16T04:37:54.221Z,98.67
2023-02-16T04:38:57.135Z,98.70
2023-02-16T04:40:00.070Z,98.66
2023-02-16T04:41:03.236Z,98.65
2023-02-16T04:42:06.332Z,98.65
2023-02-16T04:43:09.217Z,98.66
2023-02-16T04:44:12.071Z,98.74
2023-02-16T04:45:15.226Z,98.68
2023-02-16T04:46:19.569Z,98.71
2023-02-16T04:47:25.859Z,98.71
2023-02-16T04:48:28.752Z,98.69
2023-02-16T04:49:31.709Z,98.70
2023-02-16T04:50:34.642Z,98.60
2023-02-16T04:51:37.522Z,98.60
2023-02-16T04:52:41.560Z,98.67
2023-02-16T04:53:44.475Z,98.69
2023-02-16T04:54:47.812Z,98.65
2023-02-16T04:55:50.998Z,98.62
2023-02-16T04:56:53.870Z,98.62
2023-02-16T04:57:57.103Z,98.61
2023-02-16T04:59:00.322Z,98.49
2023-02-16T05:00:04.886Z,98.58
2023-02-16T05:01:08.159Z,98.52
2023-02-16T05:02:11.285Z,98.58
2023-02-16T05:03:14.187Z,98.57
2023-02-16T05:04:17.152Z,98.58
2023-02-16T05:05:20.074Z,98.56
2023-02-16T05:06:23.406Z,98.49
2023-02-16T05:07:26.266Z,98.61
2023-02-16T05:08:29.962Z,98.58
2023-02-16T05:09:32.828Z,98.60
2023-02-16T05:10:35.810Z,98.61
2023-02-16T05:11:57.508Z,98.56
2023-02-16T05:13:19.084Z,98.61
2023-02-16T05:14:45.026Z,98.69
2023-02-16T05:15:49.570Z,98.61
2023-02-16T05:16:52.852Z,98.66
2023-02-16T05:17:55.968Z,98.69
2023-02-16T05:18:59.016Z,98.61
2023-02-16T05:20:02.083Z,98.63
2023-02-16T05:21:24.054Z,98.71
2023-02-16T05:22:28.918Z,98.65
2023-02-16T05:23:31.986Z,98.69
2023-02-16T05:24:35.018Z,98.67
2023-02-16T05:25:37.963Z,98.70
2023-02-16T05:26:40.880Z,98.76
2023-02-16T05:27:43.919Z,98.75
2023-02-16T05:28:46.782Z,98.83
2023-02-16T05:29:49.771Z,98.75
2023-02-16T05:30:54.174Z,98.72
2023-02-16T05:31:57.623Z,98.80
2023-02-16T05:33:00.639Z,98.84
2023-02-16T05:34:03.574Z,98.81
2023-02-16T05:35:06.705Z,98.92
2023-02-16T05:36:10.047Z,98.85
2023-02-16T05:37:15.015Z,98.89
2023-02-16T05:38:17.893Z,98.84
2023-02-16T05:39:21.909Z,98.81
2023-02-16T05:40:24.854Z,98.83
2023-02-16T05:41:27.787Z,98.85
2023-02-16T05:42:30.602Z,98.82
2023-02-16T05:43:33.609Z,98.98
2023-02-16T05:44:37.490Z,98.99
2023-02-16T05:45:40.341Z,98.89
2023-02-16T05:46:43.866Z,98.89
2023-02-16T05:47:47.331Z,98.91
2023-02-16T05:48:51.349Z,98.94
2023-02-16T05:49:54.224Z,98.86
2023-02-16T05:50:57.109Z,98.83
2023-02-16T05:51:59.960Z,98.77
2023-02-16T05:53:02.801Z,98.80
2023-02-16T05:54:06.749Z,98.74
2023-02-16T05:55:09.781Z,98.82
2023-02-16T05:56:13.430Z,98.80
2023-02-16T05:57:16.270Z,98.77
2023-02-16T05:58:19.126Z,98.71
2023-02-16T05:59:22.069Z,98.68
2023-02-16T06:00:25.454Z,98.67
2023-02-16T06:01:29.623Z,98.79
2023-02-16T06:02:32.517Z,98.79
2023-02-16T06:03:36.522Z,98.77
2023-02-16T06:04:39.628Z,98.83
2023-02-16T06:05:42.474Z,98.87
2023-02-16T06:06:45.699Z,98.87
2023-02-16T06:07:48.708Z,98.78
2023-02-16T06:08:51.814Z,98.87
2023-02-16T06:09:54.797Z,98.86
2023-02-16T06:10:57.964Z,98.92
2023-02-16T06:12:00.809Z,98.79
2023-02-16T06:13:03.795Z,98.86
2023-02-16T06:14:13.547Z,98.81
2023-02-16T06:15:16.907Z,98.87
2023-02-16T06:16:19.786Z,98.74
2023-02-16T06:17:22.694Z,98.72
2023-02-16T06:18:26.548Z,98.77
2023-02-16T06:19:29.576Z,98.70
2023-02-16T06:20:32.960Z,98.74
2023-02-16T06:21:37.069Z,98.82
2023-02-16T06:22:39.937Z,98.71
2023-02-16T06:23:42.810Z,98.74
2023-02-16T06:24:45.643Z,98.78
2023-02-16T06:25:54.123Z,98.71
2023-02-16T06:26:57.008Z,98.84
2023-02-16T06:28:00.121Z,98.83
2023-02-16T06:29:03.478Z,98.75
2023-02-16T06:30:08.806Z,98.81
2023-02-16T06:31:12.009Z,98.88
2023-02-16T06:32:15.171Z,98.83
2023-02-16T06:33:18.101Z,98.94
2023-02-16T06:34:21.082Z,98.89
2023-02-16T06:35:24.388Z,98.93
2023-02-16T06:36:27.345Z,98.91
2023-02-16T06:37:30.473Z,98.85
2023-02-16T06:38:33.323Z,98.83
2023-02-16T06:39:36.245Z,98.84
2023-02-16T06:40:39.159Z,98.90
2023-02-16T06:41:42.055Z,98.91
2023-02-16T06:42:45.413Z,98.92
2023-02-16T06:43:48.336Z,98.91
2023-02-16T06:44:51.149Z,98.90
2023-02-16T06:45:54.103Z,98.99
2023-02-16T06:46:57.620Z,99.03
2023-02-16T06:48:00.665Z,99.05
2023-02-16T06:49:03.997Z,99.08
2023-02-16T06:50:09.952Z,99.12
2023-02-16T06:51:12.825Z,99.17
2023-02-16T06:52:15.809Z,99.13
2023-02-16T06:53:19.320Z,99.21
2023-02-16T06:54:22.296Z,99.25
2023-02-16T06:55:25.204Z,99.31
2023-02-16T06:56:28.317Z,99.35
2023-02-16T06:57:31.405Z,99.38
2023-02-16T06:58:34.653Z,99.37
2023-02-16T06:59:37.549Z,99.52
2023-02-16T07:00:40.502Z,99.56
2023-02-16T07:01:45.231Z,99.59
2023-02-16T07:02:48.502Z,99.58
2023-02-16T07:03:53.463Z,99.65
2023-02-16T07:04:56.329Z,99.62
2023-02-16T07:05:59.213Z,99.71
2023-02-16T07:07:02.770Z,99.68
2023-02-16T07:08:05.695Z,99.86
2023-02-16T07:09:10.615Z,99.82
2023-02-16T07:10:14.639Z,99.93
2023-02-16T07:11:18.028Z,99.99
2023-02-16T07:12:20.862Z,99.91
2023-02-16T07:13:23.750Z,99.95
2023-02-16T07:14:26.654Z,99.98
2023-02-16T07:15:29.695Z,100.00
2023-02-16T07:16:32.567Z,100.00
2023-02-16T07:17:35.839Z,100.00
2023-02-16T07:18:38.900Z,100.00
2023-02-16T07:19:41.842Z,100.00
2023-02-16T07:20:44.854Z,100.00
2023-02-16T07:21:47.709Z,100.00
2023-02-16T07:22:50.581Z,100.00
2023-02-16T07:23:53.401Z,100.00
2023-02-16T07:24:57.465Z,100.00
2023-02-16T07:26:00.348Z,100.00
2023-02-16T07:27:05.291Z,100.00
2023-02-16T07:28:08.241Z,100.00
2023-02-16T07:29:11.121Z,100.00
2023-02-16T07:30:16.624Z,100.00
2023-02-16T07:31:20.287Z,100.00
2023-02-16T07:32:23.426Z,100.00
2023-02-16T07:33:26.365Z,100.00
2023-02-16T07:34:29.322Z,100.00
2023-02-16T07:35:33.447Z,100.00
2023-02-16T07:36:36.554Z,100.00
2023-02-16T07:37:40.634Z,100.00
2023-02-16T07:38:43.584Z,100.00
2023-02-16T07:39:46.465Z,100.00
2023-02-16T07:40:49.462Z,100.00
2023-02-16T07:41:52.312Z,100.00
2023-02-16T07:42:55.381Z,100.00
2023-02-16T07:43:58.318Z,100.00
2023-02-16T07:45:01.229Z,100.00
2023-02-16T07:46:04.304Z,100.00
2023-02-16T07:47:07.356Z,100.00
2023-02-16T07:48:10.302Z,100.00
2023-02-16T07:49:13.276Z,100.00
2023-02-16T07:50:16.615Z,100.00
2023-02-16T07:51:24.017Z,100.00
2023-02-16T07:52:31.344Z,100.00
2023-02-16T07:53:34.311Z,100.00
2023-02-16T07:54:38.047Z,100.00
2023-02-16T07:55:42.620Z,100.00
2023-02-16T07:56:47.074Z,100.00
2023-02-16T07:57:54.673Z,100.00
2023-02-16T07:58:59.578Z,100.00
2023-02-16T08:00:03.326Z,100.00
2023-02-16T08:01:16.002Z,100.00
2023-02-16T08:02:20.061Z,100.00
2023-02-16T08:03:23.844Z,100.00
2023-02-16T08:04:27.349Z,100.00
2023-02-16T08:05:30.345Z,100.00
2023-02-16T08:06:35.693Z,100.00
2023-02-16T08:07:39.972Z,100.00
2023-02-16T08:08:42.958Z,100.00
2023-02-16T08:09:46.363Z,100.00
2023-02-16T08:10:49.317Z,100.00
2023-02-16T08:11:52.698Z,100.00
2023-02-16T08:12:55.550Z,100.00
2023-02-16T08:14:01.222Z,100.00
2023-02-16T08:15:05.119Z,100.00
2023-02-16T08:16:21.199Z,100.00
2023-02-16T08:17:24.135Z,100.00
2023-02-16T08:18:26.949Z,100.00
2023-02-16T08:19:29.843Z,100.00
2023-02-16T08:20:53.885Z,100.00
2023-02-16T08:21:55.825Z,100.00
2023-02-16T08:22:59.485Z,100.00
2023-02-16T08:24:05.478Z,100.00
2023-02-16T08:25:08.698Z,100.00
2023-02-16T08:26:11.993Z,100.00
2023-02-16T08:27:14.951Z,100.00
2023-02-16T08:28:17.870Z,100.00
2023-02-16T08:29:21.547Z,99.96
2023-02-16T08:30:25.116Z,99.66
2023-02-16T08:31:30.979Z,99.70
2023-02-16T08:32:34.473Z,99.61
2023-02-16T08:33:38.199Z,99.67
2023-02-16T08:34:43.318Z,99.60
2023-02-16T08:35:46.488Z,99.52
2023-02-16T08:36:56.925Z,99.20
2023-02-16T08:38:00.241Z,99.02
2023-02-16T08:39:07.618Z,99.06
2023-02-16T08:40:10.905Z,98.91
2023-02-16T08:41:13.786Z,98.81
2023-02-16T08:42:17.532Z,98.92
2023-02-16T08:43:20.383Z,98.90
2023-02-16T08:44:25.209Z,98.75
2023-02-16T08:45:29.875Z,98.58
2023-02-16T08:46:34.230Z,98.51
2023-02-16T08:47:37.132Z,98.30
2023-02-16T08:48:40.528Z,98.03
2023-02-16T08:49:44.614Z,97.89
2023-02-16T08:50:55.117Z,97.83
2023-02-16T08:51:59.055Z,97.86
2023-02-16T08:53:02.663Z,97.86
2023-02-16T08:54:08.739Z,97.64
2023-02-16T08:55:12.019Z,97.45
2023-02-16T08:56:16.829Z,97.52
2023-02-16T08:57:19.851Z,97.53
2023-02-16T08:58:23.818Z,97.35
2023-02-16T08:59:28.899Z,97.37
2023-02-16T09:00:35.100Z,97.25
2023-02-16T09:01:37.985Z,97.35
2023-02-16T09:02:40.921Z,97.30
2023-02-16T09:03:46.308Z,97.15
2023-02-16T09:04:49.855Z,97.13
2023-02-16T09:05:53.450Z,97.06
2023-02-16T09:06:58.232Z,97.12
2023-02-16T09:08:01.137Z,97.12
2023-02-16T09:09:05.159Z,96.90
2023-02-16T09:10:08.157Z,96.61
2023-02-16T09:11:13.724Z,96.43
2023-02-16T09:12:16.614Z,96.36
2023-02-16T09:13:20.442Z,96.09
2023-02-16T09:14:23.493Z,96.20
2023-02-16T09:15:26.609Z,96.12
2023-02-16T09:16:33.851Z,95.92
2023-02-16T09:17:37.551Z,95.83
2023-02-16T09:18:41.023Z,95.84
2023-02-16T09:19:45.256Z,95.89
2023-02-16T09:20:48.137Z,96.01
2023-02-16T09:21:51.244Z,96.04
2023-02-16T09:22:54.293Z,96.02
2023-02-16T09:23:58.348Z,95.88
2023-02-16T09:25:01.239Z,95.74
2023-02-16T09:26:07.448Z,95.50
2023-02-16T09:27:11.797Z,95.55
2023-02-16T09:28:16.112Z,95.50
2023-02-16T09:29:19.010Z,95.51
2023-02-16T09:30:22.140Z,95.52
2023-02-16T09:31:29.223Z,95.64
2023-02-16T09:32:32.188Z,95.41
2023-02-16T09:33:35.138Z,95.10
2023-02-16T09:34:38.617Z,94.93
2023-02-16T09:35:42.307Z,94.79
2023-02-16T09:36:45.716Z,94.90
2023-02-16T09:37:50.057Z,95.19
2023-02-16T09:38:54.276Z,95.23
2023-02-16T09:39:57.132Z,95.17
2023-02-16T09:41:07.942Z,95.08
2023-02-16T09:42:45.295Z,94.79
2023-02-16T09:43:57.660Z,94.79
2023-02-16T09:45:20.473Z,94.84
2023-02-16T09:46:25.416Z,94.78
2023-02-16T09:47:34.845Z,94.75
2023-02-16T09:48:46.048Z,94.44
2023-02-16T09:49:49.984Z,94.40
2023-02-16T09:50:54.872Z,94.09
2023-02-16T09:52:28.366Z,93.97
2023-02-16T09:53:41.098Z,94.07
2023-02-16T09:54:57.712Z,93.97
2023-02-16T09:56:25.557Z,94.13
2023-02-16T09:57:42.025Z,93.87
2023-02-16T09:58:57.701Z,94.19
2023-02-16T10:00:35.884Z,94.09
2023-02-16T10:01:41.709Z,93.74
2023-02-16T10:03:02.651Z,93.81
2023-02-16T10:04:46.212Z,94.23
2023-02-16T10:05:52.153Z,94.15
2023-02-16T10:06:58.485Z,93.98
2023-02-16T10:08:21.234Z,93.69
2023-02-16T10:09:27.974Z,93.77
2023-02-16T10:10:40.058Z,93.62
2023-02-16T10:11:50.322Z,93.24
2023-02-16T10:13:05.355Z,93.36
2023-02-16T10:14:57.655Z,93.34
2023-02-16T10:16:03.107Z,93.45
2023-02-16T10:17:37.844Z,93.61
2023-02-16T10:18:45.094Z,93.15
2023-02-16T10:20:13.142Z,92.91
2023-02-16T10:21:22.606Z,92.82
2023-02-16T10:22:50.557Z,92.91
2023-02-16T10:24:04.018Z,92.64
2023-02-16T10:25:19.730Z,92.79
2023-02-16T10:26:33.710Z,93.30
2023-02-16T10:27:51.434Z,93.01
2023-02-16T10:29:02.076Z,93.04
2023-02-16T10:30:18.156Z,92.56
2023-02-16T10:32:00.419Z,92.65
2023-02-16T10:33:16.949Z,92.59
2023-02-16T10:34:33.634Z,92.50
2023-02-16T10:35:52.439Z,92.51
2023-02-16T10:37:07.627Z,92.60
2023-02-16T10:38:22.575Z,92.67
2023-02-16T10:39:42.508Z,92.30
2023-02-16T10:41:09.811Z,92.38
2023-02-16T10:42:25.164Z,92.23
2023-02-16T10:43:46.657Z,92.28
2023-02-16T10:45:13.461Z,92.51
2023-02-16T10:46:30.594Z,92.53
2023-02-16T10:47:37.522Z,92.84
2023-02-16T10:48:40.682Z,92.69
2023-02-16T10:49:44.861Z,92.50
2023-02-16T10:51:06.556Z,92.13
2023-02-16T10:52:11.467Z,91.83
2023-02-16T10:53:18.900Z,91.78
2023-02-16T10:54:30.696Z,91.72
2023-02-16T10:55:33.717Z,91.54
2023-02-16T10:56:50.093Z,91.68
2023-02-16T10:57:57.382Z,91.72
2023-02-16T10:59:02.415Z,91.61
2023-02-16T11:00:17.997Z,91.76
2023-02-16T11:01:37.475Z,91.73
2023-02-16T11:02:47.453Z,91.54
2023-02-16T11:03:53.298Z,91.59
2023-02-16T11:04:59.060Z,91.58
2023-02-16T11:06:15.455Z,91.10
2023-02-16T11:07:24.226Z,91.28
2023-02-16T11:08:47.581Z,91.17
2023-02-16T11:09:55.815Z,91.33
2023-02-16T11:11:09.542Z,91.27
2023-02-16T11:12:15.681Z,91.03
2023-02-16T11:13:24.367Z,90.97
2023-02-16T11:14:31.087Z,91.11
2023-02-16T11:15:37.604Z,90.91
2023-02-16T11:16:40.631Z,90.86
2023-02-16T11:18:06.272Z,90.70
2023-02-16T11:19:20.966Z,90.67
2023-02-16T11:20:48.412Z,90.64
2023-02-16T11:21:56.574Z,90.60
2023-02-16T11:23:22.064Z,90.83
2023-02-16T11:24:26.988Z,90.83
2023-02-16T11:25:29.949Z,90.74
2023-02-16T11:26:32.980Z,90.71
2023-02-16T11:27:35.924Z,90.67
2023-02-16T11:28:47.951Z,90.81
2023-02-16T11:29:51.521Z,90.73
2023-02-16T11:31:02.230Z,90.63
2023-02-16T11:32:11.547Z,90.79
2023-02-16T11:33:24.169Z,90.74
2023-02-16T11:34:39.510Z,90.76
2023-02-16T11:35:44.795Z,90.61
2023-02-16T11:36:48.414Z,90.43
2023-02-16T11:37:51.488Z,90.24
2023-02-16T11:39:00.222Z,90.27
2023-02-16T11:40:06.186Z,90.36
2023-02-16T11:41:09.207Z,90.48
2023-02-16T11:42:41.974Z,90.69
2023-02-16T11:43:44.986Z,90.16
2023-02-16T11:44:57.286Z,90.23
2023-02-16T11:46:11.807Z,90.16
2023-02-16T11:47:25.641Z,89.90
2023-02-16T11:48:32.716Z,89.52
2023-02-16T11:49:39.865Z,89.55
2023-02-16T11:51:08.862Z,89.79
2023-02-16T11:52:22.322Z,89.92
2023-02-16T11:53:28.489Z,89.65
2023-02-16T11:54:31.330Z,89.90
2023-02-16T11:55:34.321Z,90.03
2023-02-16T11:56:37.406Z,89.96
2023-02-16T11:57:40.879Z,89.79
2023-02-16T11:58:45.127Z,89.59
2023-02-16T11:59:47.995Z,89.51
2023-02-16T12:01:12.288Z,89.77
2023-02-16T12:02:31.826Z,89.64
2023-02-16T12:04:02.535Z,89.59
2023-02-16T12:05:08.582Z,89.41
2023-02-16T12:06:24.083Z,89.53
2023-02-16T12:07:31.685Z,89.63
2023-02-16T12:08:48.453Z,89.68
2023-02-16T12:09:54.347Z,89.92
2023-02-16T12:11:32.314Z,89.90
2023-02-16T12:13:10.478Z,89.64
2023-02-16T12:14:42.020Z,89.49
2023-02-16T12:15:54.899Z,89.33
2023-02-16T12:17:27.914Z,89.46
2023-02-16T12:18:55.472Z,89.13
2023-02-16T12:20:23.644Z,89.31
2023-02-16T12:21:34.896Z,89.33
2023-02-16T12:22:37.682Z,89.00
2023-02-16T12:24:22.749Z,89.29
2023-02-16T12:25:42.643Z,89.45
2023-02-16T12:26:58.700Z,89.31
2023-02-16T12:28:37.582Z,89.29
2023-02-16T12:29:59.416Z,89.19
2023-02-16T12:31:29.922Z,89.24
2023-02-16T12:32:48.198Z,89.27
2023-02-16T12:34:09.432Z,89.27
2023-02-16T12:35:27.650Z,89.13
2023-02-16T12:36:56.454Z,89.38
2023-02-16T12:38:28.848Z,89.40
2023-02-16T12:39:49.305Z,89.50
2023-02-16T12:41:11.406Z,89.62
2023-02-16T12:42:40.313Z,89.50
2023-02-16T12:43:48.841Z,89.45
2023-02-16T12:44:57.094Z,89.30
2023-02-16T12:46:13.583Z,89.21
2023-02-16T12:47:25.975Z,89.07
2023-02-16T12:48:53.978Z,88.93
2023-02-16T12:50:02.005Z,88.90
2023-02-16T12:51:11.823Z,88.91
2023-02-16T12:52:34.010Z,88.91
2023-02-16T12:53:47.006Z,88.60
2023-02-16T12:54:55.636Z,88.64
2023-02-16T12:56:08.187Z,88.66
2023-02-16T12:57:15.475Z,88.50
2023-02-16T12:58:22.461Z,88.45
2023-02-16T12:59:35.436Z,88.28
2023-02-16T13:00:49.712Z,88.17
2023-02-16T13:01:56.551Z,88.17
2023-02-16T13:03:21.180Z,88.13
2023-02-16T13:04:44.289Z,88.28
2023-02-16T13:06:18.392Z,88.50
2023-02-16T13:07:31.813Z,88.81
2023-02-16T13:08:51.556Z,88.88
2023-02-16T13:10:17.113Z,88.42
2023-02-16T13:11:25.900Z,88.22
2023-02-16T13:12:40.577Z,87.91
2023-02-16T13:13:46.800Z,88.04
2023-02-16T13:15:02.276Z,88.28
2023-02-16T13:16:32.005Z,88.04
2023-02-16T13:17:58.785Z,88.07
2023-02-16T13:19:01.901Z,87.95
2023-02-16T13:20:15.238Z,87.89
2023-02-16T13:21:51.902Z,87.76
2023-02-16T13:23:24.058Z,87.77
2023-02-16T13:24:53.282Z,88.05
2023-02-16T13:26:04.437Z,87.87
2023-02-16T13:27:07.724Z,87.80
2023-02-16T13:28:32.507Z,87.81
2023-02-16T13:30:08.935Z,87.89
2023-02-16T13:31:40.513Z,87.97
2023-02-16T13:33:04.220Z,87.97
2023-02-16T13:34:21.447Z,88.32
2023-02-16T13:35:35.788Z,88.40
2023-02-16T13:36:44.669Z,88.78
2023-02-16T13:38:24.145Z,88.84
2023-02-16T13:39:56.286Z,88.82
2023-02-16T13:41:17.785Z,88.89
2023-02-16T13:42:48.577Z,89.20
2023-02-16T13:43:57.987Z,89.18
2023-02-16T13:45:04.033Z,89.18
2023-02-16T13:46:13.572Z,89.31
2023-02-16T13:47:22.077Z,89.31
2023-02-16T13:48:36.928Z,89.34
2023-02-16T13:49:43.301Z,89.32
2023-02-16T13:50:47.835Z,89.34
2023-02-16T13:51:51.559Z,89.18
2023-02-16T13:53:10.109Z,89.35
2023-02-16T13:54:44.781Z,89.13
2023-02-16T13:55:49.678Z,89.08
2023-02-16T13:56:52.591Z,89.33
2023-02-16T13:58:16.373Z,89.36
2023-02-16T13:59:27.962Z,89.37
2023-02-16T14:00:43.900Z,89.39
2023-02-16T14:01:51.384Z,89.51
2023-02-16T14:03:16.550Z,89.43
2023-02-16T14:04:23.498Z,89.54
2023-02-16T14:05:34.336Z,89.66
2023-02-16T14:06:40.006Z,89.70
2023-02-16T14:07:43.304Z,89.85
2023-02-16T14:09:11.995Z,89.87
2023-02-16T14:10:15.444Z,89.82
2023-02-16T14:11:19.168Z,89.95
2023-02-16T14:12:37.790Z,90.01
2023-02-16T14:13:46.943Z,89.95
2023-02-16T14:14:53.189Z,90.06
2023-02-16T14:16:02.207Z,90.09
2023-02-16T14:17:21.680Z,90.01
2023-02-16T14:18:36.932Z,90.13
2023-02-16T14:19:39.893Z,90.22
2023-02-16T14:20:42.916Z,90.28
2023-02-16T14:21:48.817Z,90.31
2023-02-16T14:23:00.734Z,90.29
2023-02-16T14:24:06.532Z,90.41
2023-02-16T14:25:24.467Z,90.45
2023-02-16T14:26:27.892Z,90.42
2023-02-16T14:27:49.721Z,90.55
2023-02-16T14:29:17.425Z,90.45
2023-02-16T14:30:27.242Z,90.48
2023-02-16T14:31:32.588Z,90.51
2023-02-16T14:32:39.811Z,90.59
2023-02-16T14:34:18.889Z,90.54
2023-02-16T14:35:27.330Z,90.60
2023-02-16T14:36:31.117Z,90.68
2023-02-16T14:37:41.502Z,90.71
2023-02-16T14:38:48.595Z,90.55
2023-02-16T14:40:07.529Z,90.62
2023-02-16T14:41:24.760Z,90.64
2023-02-16T14:42:32.140Z,90.58
2023-02-16T14:43:42.476Z,90.63
2023-02-16T14:45:07.098Z,90.66
2023-02-16T14:46:30.683Z,90.60
2023-02-16T14:47:47.295Z,90.53
2023-02-16T14:49:11.479Z,90.65
2023-02-16T14:50:32.405Z,90.63
2023-02-16T14:52:23.952Z,90.63